Time;durP1;ratioP1;P1;durP2;ratioP2;P2;SDS_P1;SDS_P2;PMS_P1;PMS_P2;Temp;Humidity;BMP_temperature;BMP_pressure;BME280_temperature;BME280_humidity;BME280_pressure;Samples;Min_cycle;Max_cycle;Signal;HPM_P1;HPM_P2
2022/11/08 00:01:51;;;;;;;2.90;1.00;;;;;;;;;;6178967;23;20086;-80
2022/11/08 00:04:18;;;;;;;2.33;1.10;;;;;;;;;;6199613;23;20493;-80
2022/11/08 00:14:59;;;;;;;4.85;1.00;;;;;;;;;;6204697;23;20018;-80
2022/11/08 00:17:27;;;;;;;1.80;1.10;;;;;;;;;;6202014;23;20199;-81
2022/11/08 00:19:53;;;;;;;6.57;1.30;;;;;;;;;;6204450;23;20003;-80
2022/11/08 00:22:19;;;;;;;4.15;1.00;;;;;;;;;;6203701;23;20004;-82
2022/11/08 00:24:45;;;;;;;1.58;1.10;;;;;;;;;;6204263;23;20151;-80
2022/11/08 00:27:19;;;;;;;5.43;1.10;;;;;;;;;;6203205;23;20004;-80
2022/11/08 00:29:45;;;;;;;4.53;1.17;;;;;;;;;;6204036;23;20004;-81
2022/11/08 00:32:13;;;;;;;2.72;0.98;;;;;;;;;;6202186;23;20004;-81
2022/11/08 00:34:39;;;;;;;5.47;1.67;;;;;;;;;;6203946;23;20017;-80
2022/11/08 00:37:06;;;;;;;3.47;1.23;;;;;;;;;;6203831;23;20000;-81
2022/11/08 00:39:32;;;;;;;2.33;1.17;;;;;;;;;;6202233;23;20864;-78
2022/11/08 00:41:58;;;;;;;3.72;1.30;;;;;;;;;;6201298;23;20015;-80
2022/11/08 00:44:25;;;;;;;7.75;1.40;;;;;;;;;;6201809;23;20682;-80
2022/11/08 00:46:51;;;;;;;1.73;1.00;;;;;;;;;;6203613;23;20048;-80
2022/11/08 00:49:17;;;;;;;7.95;1.50;;;;;;;;;;6204056;23;20005;-80
2022/11/08 00:51:43;;;;;;;4.65;1.33;;;;;;;;;;6203486;23;20586;-81
2022/11/08 00:54:12;;;;;;;7.70;1.48;;;;;;;;;;6204448;23;20004;-80
2022/11/08 00:56:38;;;;;;;3.92;1.13;;;;;;;;;;6177417;23;20008;-81
2022/11/08 00:59:04;;;;;;;3.83;1.00;;;;;;;;;;6202019;23;20000;-81
2022/11/08 01:01:30;;;;;;;3.78;1.30;;;;;;;;;;6204103;23;20429;-79
2022/11/08 01:03:56;;;;;;;6.55;1.40;;;;;;;;;;6204745;23;20004;-80
2022/11/08 01:06:23;;;;;;;5.60;1.35;;;;;;;;;;6204234;23;20005;-81
2022/11/08 01:08:50;;;;;;;4.38;1.25;;;;;;;;;;6203604;23;20009;-81
2022/11/08 01:11:18;;;;;;;3.70;1.27;;;;;;;;;;6203650;23;20017;-80
2022/11/08 01:13:44;;;;;;;4.82;1.48;;;;;;;;;;6202333;23;20004;-80
2022/11/08 01:16:21;;;;;;;5.75;1.60;;;;;;;;;;6203833;23;20083;-80
2022/11/08 01:18:48;;;;;;;4.95;1.40;;;;;;;;;;6203719;23;20071;-80
2022/11/08 01:21:14;;;;;;;1.92;1.17;;;;;;;;;;6176557;23;20004;-76
2022/11/08 01:23:41;;;;;;;3.17;1.10;;;;;;;;;;6203969;23;20015;-81
2022/11/08 01:26:10;;;;;;;3.85;1.50;;;;;;;;;;6202325;23;20011;-80
2022/11/08 01:28:36;;;;;;;5.05;1.50;;;;;;;;;;6203175;23;20005;-81
2022/11/08 01:31:03;;;;;;;3.10;1.17;;;;;;;;;;6203681;23;20043;-81
2022/11/08 01:33:30;;;;;;;3.90;1.42;;;;;;;;;;6176839;23;20326;-80
2022/11/08 01:35:56;;;;;;;2.65;1.38;;;;;;;;;;6203932;23;20032;-81
2022/11/08 01:38:22;;;;;;;4.40;1.30;;;;;;;;;;6202964;23;20008;-81
2022/11/08 01:40:49;;;;;;;5.20;1.38;;;;;;;;;;6206039;23;20001;-81
2022/11/08 01:43:30;;;;;;;3.85;1.50;;;;;;;;;;6205964;23;20016;-80
2022/11/08 01:46:14;;;;;;;7.10;1.63;;;;;;;;;;6205622;23;20062;-80
2022/11/08 01:49:00;;;;;;;2.97;1.15;;;;;;;;;;6203434;23;20001;-80
2022/11/08 01:51:28;;;;;;;2.72;1.30;;;;;;;;;;6184323;23;20078;-81
2022/11/08 01:53:55;;;;;;;3.58;1.38;;;;;;;;;;6205436;23;20516;-80
2022/11/08 01:56:21;;;;;;;7.35;1.52;;;;;;;;;;6205892;23;20001;-81
2022/11/08 01:58:49;;;;;;;3.30;1.63;;;;;;;;;;6205176;23;20062;-80
2022/11/08 02:01:16;;;;;;;4.65;1.63;;;;;;;;;;6205399;23;20005;-81
2022/11/08 02:03:42;;;;;;;1.98;1.20;;;;;;;;;;6203921;23;20410;-81
2022/11/08 02:06:08;;;;;;;5.15;1.42;;;;;;;;;;6205277;23;20028;-80
2022/11/08 02:08:37;;;;;;;1.77;1.00;;;;;;;;;;6205398;23;20065;-81
2022/11/08 02:11:03;;;;;;;5.68;1.38;;;;;;;;;;6205062;23;20016;-80
2022/11/08 02:13:30;;;;;;;4.82;1.90;;;;;;;;;;6205206;23;20001;-81
2022/11/08 02:15:57;;;;;;;3.95;1.50;;;;;;;;;;6202842;23;20020;-79
2022/11/08 02:18:24;;;;;;;2.85;1.27;;;;;;;;;;6197190;23;20000;-81
2022/11/08 02:20:56;;;;;;;4.25;1.45;;;;;;;;;;6200347;23;20011;-78
2022/11/08 02:23:29;;;;;;;4.43;1.30;;;;;;;;;;6199573;23;20029;-80
2022/11/08 02:25:55;;;;;;;2.75;1.30;;;;;;;;;;6200636;23;20004;-81
2022/11/08 02:28:21;;;;;;;4.13;1.38;;;;;;;;;;6197304;23;20079;-80
2022/11/08 02:30:47;;;;;;;3.63;1.52;;;;;;;;;;6199556;23;20090;-80
2022/11/08 02:33:20;;;;;;;3.75;1.30;;;;;;;;;;6199443;23;20009;-79
2022/11/08 02:35:51;;;;;;;7.65;1.98;;;;;;;;;;6199906;23;20016;-79
2022/11/08 02:38:17;;;;;;;3.72;1.50;;;;;;;;;;6170966;23;20327;-80
2022/11/08 02:40:46;;;;;;;4.07;1.17;;;;;;;;;;6198568;23;20059;-78
2022/11/08 02:43:12;;;;;;;4.32;1.60;;;;;;;;;;6196873;23;19997;-79
2022/11/08 02:45:39;;;;;;;4.63;1.20;;;;;;;;;;6197573;23;20015;-82
2022/11/08 02:48:05;;;;;;;3.47;0.98;;;;;;;;;;6198697;23;20014;-80
2022/11/08 02:50:32;;;;;;;3.30;1.48;;;;;;;;;;6198274;23;20013;-81
2022/11/08 02:52:58;;;;;;;3.90;1.17;;;;;;;;;;6199006;23;20001;-81
2022/11/08 02:55:24;;;;;;;4.63;1.50;;;;;;;;;;6197173;23;20000;-76
2022/11/08 02:57:50;;;;;;;4.47;1.38;;;;;;;;;;6199747;23;20070;-80
2022/11/08 03:00:16;;;;;;;2.63;1.00;;;;;;;;;;6198917;23;20101;-79
2022/11/08 03:02:43;;;;;;;2.05;0.88;;;;;;;;;;6198426;23;20047;-80
2022/11/08 03:05:09;;;;;;;6.85;1.10;;;;;;;;;;6197330;23;20015;-80
2022/11/08 03:07:35;;;;;;;4.28;1.20;;;;;;;;;;6172937;23;20012;-80
2022/11/08 03:10:01;;;;;;;4.80;1.00;;;;;;;;;;6199011;23;20353;-81
2022/11/08 03:12:27;;;;;;;3.58;1.00;;;;;;;;;;6199505;23;20016;-77
2022/11/08 03:14:53;;;;;;;4.90;1.20;;;;;;;;;;6172604;23;20114;-81
2022/11/08 03:17:19;;;;;;;3.25;1.27;;;;;;;;;;6199157;23;20004;-80
2022/11/08 03:19:45;;;;;;;3.92;1.30;;;;;;;;;;6197539;23;20005;-76
2022/11/08 03:22:12;;;;;;;6.28;1.35;;;;;;;;;;6198928;23;20004;-80
2022/11/08 03:24:38;;;;;;;3.42;1.20;;;;;;;;;;6198873;23;20008;-79
2022/11/08 03:27:04;;;;;;;5.18;1.20;;;;;;;;;;6198545;23;20005;-80
2022/11/08 03:29:30;;;;;;;3.60;1.10;;;;;;;;;;6198912;23;20000;-77
2022/11/08 03:31:56;;;;;;;3.95;1.33;;;;;;;;;;6197178;23;20784;-81
2022/11/08 03:34:22;;;;;;;6.93;1.55;;;;;;;;;;6198447;23;20037;-80
2022/11/08 03:36:48;;;;;;;4.05;1.00;;;;;;;;;;6198301;23;20008;-79
2022/11/08 03:39:15;;;;;;;6.93;1.02;;;;;;;;;;6198308;23;20191;-80
2022/11/08 03:41:41;;;;;;;4.90;1.00;;;;;;;;;;6198190;23;20008;-82
2022/11/08 03:44:07;;;;;;;6.93;2.15;;;;;;;;;;6195132;23;20008;-78
2022/11/08 03:46:33;;;;;;;3.85;1.10;;;;;;;;;;6199181;23;20337;-79
2022/11/08 03:48:59;;;;;;;2.80;0.93;;;;;;;;;;6198116;23;20001;-79
2022/11/08 03:51:25;;;;;;;2.45;1.40;;;;;;;;;;6198082;23;20013;-77
2022/11/08 03:53:51;;;;;;;2.90;1.10;;;;;;;;;;6198688;23;20005;-78
2022/11/08 03:56:18;;;;;;;2.70;1.13;;;;;;;;;;6196454;23;20062;-80
2022/11/08 03:58:44;;;;;;;2.83;1.00;;;;;;;;;;6198075;23;20012;-80
2022/11/08 04:01:10;;;;;;;5.63;1.23;;;;;;;;;;6199075;23;20008;-75
2022/11/08 04:03:36;;;;;;;3.53;1.20;;;;;;;;;;6198803;23;20055;-79
2022/11/08 04:06:03;;;;;;;4.15;1.13;;;;;;;;;;6198370;23;20019;-80
2022/11/08 04:08:29;;;;;;;2.60;1.17;;;;;;;;;;6198114;23;20009;-80
2022/11/08 04:10:56;;;;;;;5.93;1.35;;;;;;;;;;6196459;23;20055;-80
2022/11/08 04:16:08;;;;;;;2.55;1.15;;;;;;;;;;6197434;23;20020;-80
2022/11/08 04:21:20;;;;;;;6.38;1.55;;;;;;;;;;6201063;23;20068;-81
2022/11/08 04:23:47;;;;;;;4.68;1.40;;;;;;;;;;6199649;23;20001;-80
2022/11/08 04:26:14;;;;;;;3.38;1.00;;;;;;;;;;6174251;23;20490;-80
2022/11/08 04:28:41;;;;;;;2.80;1.17;;;;;;;;;;6200436;23;20004;-81
2022/11/08 04:31:08;;;;;;;2.45;1.27;;;;;;;;;;6200542;23;20013;-80
2022/11/08 04:33:34;;;;;;;5.32;1.88;;;;;;;;;;6198457;23;20009;-81
2022/11/08 04:36:02;;;;;;;4.70;1.50;;;;;;;;;;6201622;23;20000;-80
2022/11/08 04:38:29;;;;;;;5.25;1.50;;;;;;;;;;6200394;23;20068;-82
2022/11/08 04:40:58;;;;;;;3.65;1.52;;;;;;;;;;6201026;23;20015;-80
2022/11/08 04:43:25;;;;;;;7.15;1.70;;;;;;;;;;6200444;23;20004;-80
2022/11/08 04:45:51;;;;;;;3.17;1.20;;;;;;;;;;6199722;23;20059;-80
2022/11/08 04:48:17;;;;;;;4.75;1.40;;;;;;;;;;6200779;23;20218;-79
2022/11/08 04:50:43;;;;;;;2.83;1.30;;;;;;;;;;6200613;23;20096;-82
2022/11/08 04:53:09;;;;;;;3.28;1.20;;;;;;;;;;6200489;23;20437;-80
2022/11/08 04:55:36;;;;;;;2.60;1.27;;;;;;;;;;6198267;23;20004;-78
2022/11/08 04:58:02;;;;;;;4.47;1.17;;;;;;;;;;6170392;23;20012;-81
2022/11/08 05:00:28;;;;;;;3.70;1.27;;;;;;;;;;6171383;23;20905;-80
2022/11/08 05:02:54;;;;;;;3.20;1.40;;;;;;;;;;6198676;23;20000;-77
2022/11/08 05:05:20;;;;;;;5.15;1.38;;;;;;;;;;6198465;23;20011;-80
2022/11/08 05:07:47;;;;;;;2.55;1.40;;;;;;;;;;6195852;23;20011;-80
2022/11/08 05:10:13;;;;;;;3.92;1.45;;;;;;;;;;6198279;23;20100;-77
2022/11/08 05:12:39;;;;;;;4.63;1.50;;;;;;;;;;6198174;23;20314;-81
2022/11/08 05:15:05;;;;;;;4.88;1.13;;;;;;;;;;6198113;23;20008;-81
2022/11/08 05:17:32;;;;;;;2.35;0.98;;;;;;;;;;6196665;23;20292;-77
2022/11/08 05:25:27;;;;;;;5.28;1.33;;;;;;;;;;6198443;23;20067;-81
2022/11/08 05:27:53;;;;;;;1.95;1.13;;;;;;;;;;6194813;23;20619;-80
2022/11/08 05:30:20;;;;;;;5.88;1.42;;;;;;;;;;6197342;23;20017;-80
2022/11/08 05:32:46;;;;;;;3.70;1.35;;;;;;;;;;6197576;23;20064;-80
2022/11/08 05:35:12;;;;;;;2.05;1.20;;;;;;;;;;6197135;23;20024;-80
2022/11/08 05:37:41;;;;;;;7.30;1.55;;;;;;;;;;6194525;23;19996;-79
2022/11/08 05:40:07;;;;;;;2.47;1.10;;;;;;;;;;6197695;23;20009;-73
2022/11/08 05:42:33;;;;;;;3.63;1.08;;;;;;;;;;6197361;23;20329;-79
2022/11/08 05:44:59;;;;;;;4.43;1.20;;;;;;;;;;6197845;23;20583;-76
2022/11/08 05:47:25;;;;;;;5.85;1.40;;;;;;;;;;6195158;23;20005;-80
2022/11/08 05:49:51;;;;;;;3.92;1.63;;;;;;;;;;6197000;23;20080;-79
2022/11/08 05:52:18;;;;;;;4.20;1.50;;;;;;;;;;6197773;23;20007;-79
2022/11/08 05:54:44;;;;;;;5.07;1.80;;;;;;;;;;6197126;23;20005;-79
2022/11/08 05:57:10;;;;;;;6.95;1.73;;;;;;;;;;6197877;23;19997;-80
2022/11/08 05:59:36;;;;;;;6.03;1.40;;;;;;;;;;6195563;23;20008;-82
2022/11/08 06:02:02;;;;;;;5.15;1.48;;;;;;;;;;6169865;23;20119;-79
2022/11/08 06:04:28;;;;;;;14.68;1.45;;;;;;;;;;6196215;23;20089;-79
2022/11/08 06:06:54;;;;;;;7.70;1.95;;;;;;;;;;6195764;23;20000;-79
2022/11/08 06:09:21;;;;;;;7.18;1.83;;;;;;;;;;6192643;23;20015;-79
2022/11/08 06:11:47;;;;;;;9.45;1.40;;;;;;;;;;6195409;23;20518;-79
2022/11/08 06:14:13;;;;;;;4.53;1.55;;;;;;;;;;6196146;23;20007;-78
2022/11/08 06:16:39;;;;;;;3.65;1.48;;;;;;;;;;6196455;23;20012;-79
2022/11/08 06:19:05;;;;;;;3.95;1.60;;;;;;;;;;6196287;23;20012;-78
2022/11/08 06:21:31;;;;;;;2.78;1.45;;;;;;;;;;6195290;23;20034;-79
2022/11/08 06:23:57;;;;;;;3.30;1.70;;;;;;;;;;6197070;23;20413;-79
2022/11/08 06:26:24;;;;;;;4.82;1.63;;;;;;;;;;6199320;23;20008;-79
2022/11/08 06:28:50;;;;;;;3.55;1.40;;;;;;;;;;6199217;23;20425;-80
2022/11/08 06:31:16;;;;;;;4.57;1.85;;;;;;;;;;6199037;23;20013;-80
2022/11/08 06:33:42;;;;;;;3.63;1.80;;;;;;;;;;6199827;23;20087;-79
2022/11/08 06:36:09;;;;;;;3.45;1.60;;;;;;;;;;6199623;23;20026;-78
2022/11/08 06:38:35;;;;;;;5.07;2.53;;;;;;;;;;6198397;23;20003;-78
2022/11/08 06:41:01;;;;;;;4.00;1.92;;;;;;;;;;6198058;23;20538;-78
2022/11/08 06:43:28;;;;;;;6.43;1.90;;;;;;;;;;6196244;23;20036;-77
2022/11/08 06:45:54;;;;;;;8.13;2.30;;;;;;;;;;6197648;23;20032;-78
2022/11/08 06:48:20;;;;;;;8.77;2.20;;;;;;;;;;6197593;23;20011;-77
2022/11/08 06:50:47;;;;;;;9.30;2.60;;;;;;;;;;6198766;23;20088;-76
2022/11/08 06:53:13;;;;;;;6.28;2.10;;;;;;;;;;6199342;23;20329;-77
2022/11/08 06:55:40;;;;;;;7.68;2.10;;;;;;;;;;6196122;23;20004;-77
2022/11/08 06:58:06;;;;;;;4.72;1.50;;;;;;;;;;6199535;23;20024;-76
2022/11/08 07:00:32;;;;;;;5.57;2.05;;;;;;;;;;6197788;23;20036;-78
2022/11/08 07:02:59;;;;;;;6.45;2.05;;;;;;;;;;6201195;23;20085;-76
2022/11/08 07:05:26;;;;;;;6.55;3.20;;;;;;;;;;6198882;23;20491;-76
2022/11/08 07:07:52;;;;;;;4.30;3.47;;;;;;;;;;6201445;23;20008;-75
2022/11/08 07:10:19;;;;;;;5.80;4.13;;;;;;;;;;6200887;23;20000;-75
2022/11/08 07:12:46;;;;;;;8.25;4.90;;;;;;;;;;6201251;23;20005;-75
2022/11/08 07:15:12;;;;;;;15.70;4.40;;;;;;;;;;6199894;23;20015;-76
2022/11/08 07:17:38;;;;;;;8.80;3.83;;;;;;;;;;6200785;23;20003;-76
2022/11/08 07:20:05;;;;;;;7.28;3.85;;;;;;;;;;6200895;23;20009;-76
2022/11/08 07:22:31;;;;;;;6.53;3.80;;;;;;;;;;6201247;23;20000;-75
2022/11/08 07:24:57;;;;;;;8.73;3.72;;;;;;;;;;6201557;23;20015;-74
2022/11/08 07:27:23;;;;;;;5.55;3.60;;;;;;;;;;6201224;23;20426;-76
2022/11/08 07:29:49;;;;;;;8.48;4.53;;;;;;;;;;6198090;23;20009;-76
2022/11/08 07:32:15;;;;;;;9.05;4.70;;;;;;;;;;6201000;23;20385;-74
2022/11/08 07:34:42;;;;;;;9.93;5.22;;;;;;;;;;6199989;23;20607;-79
2022/11/08 07:37:08;;;;;;;13.35;4.80;;;;;;;;;;6200879;23;20008;-71
2022/11/08 07:39:34;;;;;;;8.10;4.15;;;;;;;;;;6200217;23;20080;-70
2022/11/08 07:42:00;;;;;;;10.98;3.80;;;;;;;;;;6199019;23;20080;-71
2022/11/08 07:44:26;;;;;;;8.32;4.78;;;;;;;;;;6201103;23;20008;-71
2022/11/08 07:46:52;;;;;;;14.00;5.72;;;;;;;;;;6201307;23;20008;-74
2022/11/08 07:49:19;;;;;;;17.15;7.60;;;;;;;;;;6200858;23;20061;-74
2022/11/08 07:51:45;;;;;;;18.67;6.32;;;;;;;;;;6200654;23;20024;-80
2022/11/08 07:54:11;;;;;;;13.82;5.85;;;;;;;;;;6199327;23;20011;-79
2022/11/08 07:56:37;;;;;;;13.20;5.75;;;;;;;;;;6200986;23;20088;-76
2022/11/08 07:59:03;;;;;;;12.75;5.43;;;;;;;;;;6201215;23;20095;-78
2022/11/08 08:01:29;;;;;;;8.88;4.38;;;;;;;;;;6201947;23;20376;-78
2022/11/08 08:03:55;;;;;;;4.40;2.22;;;;;;;;;;6200297;23;19997;-79
2022/11/08 08:06:23;;;;;;;4.38;1.85;;;;;;;;;;6199557;23;20000;-80
2022/11/08 08:08:49;;;;;;;6.13;2.13;;;;;;;;;;6200844;23;20046;-81
2022/11/08 08:11:15;;;;;;;6.00;2.13;;;;;;;;;;6200933;23;20009;-79
2022/11/08 08:13:42;;;;;;;5.95;2.30;;;;;;;;;;6198377;23;20001;-81
2022/11/08 08:16:08;;;;;;;4.35;1.83;;;;;;;;;;6201379;23;20005;-79
2022/11/08 08:18:34;;;;;;;6.90;2.30;;;;;;;;;;6201306;23;20028;-79
2022/11/08 08:21:00;;;;;;;6.43;2.17;;;;;;;;;;6200989;23;20071;-79
2022/11/08 08:23:27;;;;;;;5.07;1.67;;;;;;;;;;6201040;23;20004;-80
2022/11/08 08:25:53;;;;;;;5.78;1.90;;;;;;;;;;6200687;23;20337;-80
2022/11/08 08:28:19;;;;;;;5.70;1.20;;;;;;;;;;6199966;23;20143;-79
2022/11/08 08:30:45;;;;;;;2.35;1.10;;;;;;;;;;6200610;23;20008;-81
2022/11/08 08:33:13;;;;;;;3.13;1.00;;;;;;;;;;6200498;23;20005;-80
2022/11/08 08:35:42;;;;;;;4.05;1.23;;;;;;;;;;6201302;23;20075;-79
2022/11/08 08:38:09;;;;;;;2.30;1.27;;;;;;;;;;6201282;23;20298;-80
2022/11/08 08:40:36;;;;;;;3.45;1.05;;;;;;;;;;6201442;23;20040;-80
2022/11/08 08:43:03;;;;;;;3.67;1.40;;;;;;;;;;6199423;23;20000;-79
2022/11/08 08:45:30;;;;;;;5.00;1.45;;;;;;;;;;6201296;23;20000;-79
2022/11/08 08:47:57;;;;;;;3.60;1.45;;;;;;;;;;6199768;23;20005;-80
2022/11/08 08:50:23;;;;;;;5.13;1.50;;;;;;;;;;6200454;23;20449;-79
2022/11/08 08:52:50;;;;;;;4.47;1.50;;;;;;;;;;6173543;23;20036;-79
2022/11/08 08:55:16;;;;;;;2.38;1.00;;;;;;;;;;6172276;23;20008;-80
2022/11/08 08:57:46;;;;;;;4.32;1.23;;;;;;;;;;6200374;23;19999;-81
2022/11/08 09:00:13;;;;;;;4.15;1.52;;;;;;;;;;6199028;23;20005;-79
2022/11/08 09:02:39;;;;;;;7.97;2.53;;;;;;;;;;6197937;23;20078;-79
2022/11/08 09:05:06;;;;;;;3.67;1.50;;;;;;;;;;6170252;23;20015;-80
2022/11/08 09:07:32;;;;;;;4.22;1.60;;;;;;;;;;6200074;23;20076;-79
2022/11/08 09:09:58;;;;;;;2.30;1.38;;;;;;;;;;6199644;23;20035;-79
2022/11/08 09:12:24;;;;;;;6.28;1.70;;;;;;;;;;6200814;23;20035;-80
2022/11/08 09:14:50;;;;;;;3.92;1.40;;;;;;;;;;6201319;23;20059;-79
2022/11/08 09:17:16;;;;;;;3.92;1.40;;;;;;;;;;6201847;23;20072;-79
2022/11/08 09:19:42;;;;;;;3.35;1.30;;;;;;;;;;6198148;23;20011;-77
2022/11/08 09:22:09;;;;;;;3.80;1.25;;;;;;;;;;6200455;23;19997;-77
2022/11/08 09:24:35;;;;;;;2.28;1.00;;;;;;;;;;6200856;23;20067;-80
2022/11/08 09:27:02;;;;;;;2.83;1.42;;;;;;;;;;6200825;23;20063;-79
2022/11/08 09:29:32;;;;;;;4.10;1.80;;;;;;;;;;6200601;23;20087;-78
2022/11/08 09:31:58;;;;;;;3.28;1.30;;;;;;;;;;6198197;23;20641;-77
2022/11/08 09:34:25;;;;;;;2.63;1.10;;;;;;;;;;6200793;23;20062;-80
2022/11/08 09:36:51;;;;;;;3.55;1.08;;;;;;;;;;6201040;23;20009;-80
2022/11/08 09:39:17;;;;;;;3.58;1.67;;;;;;;;;;6200100;23;20075;-79
2022/11/08 09:42:04;;;;;;;4.70;1.50;;;;;;;;;;6198517;23;20092;-81
2022/11/08 09:44:36;;;;;;;1.67;1.30;;;;;;;;;;6180213;23;20074;-80
2022/11/08 09:47:04;;;;;;;3.28;1.35;;;;;;;;;;6201068;23;20009;-79
2022/11/08 09:49:33;;;;;;;3.95;1.77;;;;;;;;;;6198706;23;20008;-80
2022/11/08 09:52:00;;;;;;;4.65;1.75;;;;;;;;;;6174068;23;20012;-79
2022/11/08 09:54:29;;;;;;;4.28;1.60;;;;;;;;;;6200739;23;20028;-80
2022/11/08 09:56:55;;;;;;;4.57;1.60;;;;;;;;;;6200660;23;20005;-79
2022/11/08 09:59:42;;;;;;;4.10;1.45;;;;;;;;;;6199471;23;20005;-80
2022/11/08 10:02:19;;;;;;;3.78;1.30;;;;;;;;;;6202428;23;20004;-80
2022/11/08 10:04:47;;;;;;;3.50;1.23;;;;;;;;;;6202616;23;20384;-79
2022/11/08 10:07:20;;;;;;;2.33;1.33;;;;;;;;;;6202950;23;20016;-80
2022/11/08 10:09:49;;;;;;;4.75;1.40;;;;;;;;;;6202132;23;20000;-82
2022/11/08 10:12:19;;;;;;;2.63;1.25;;;;;;;;;;6201103;23;20001;-83
2022/11/08 10:15:07;;;;;;;5.47;1.63;;;;;;;;;;6202744;23;20031;-82
2022/11/08 10:17:40;;;;;;;2.95;1.40;;;;;;;;;;6175756;23;20483;-81
2022/11/08 10:20:18;;;;;;;4.20;1.50;;;;;;;;;;6201968;23;19993;-82
2022/11/08 10:22:59;;;;;;;4.35;1.98;;;;;;;;;;6200593;23;20087;-80
2022/11/08 10:25:34;;;;;;;5.45;1.63;;;;;;;;;;6202443;23;20003;-82
2022/11/08 10:28:01;;;;;;;6.93;1.88;;;;;;;;;;6202318;23;20012;-82
2022/11/08 10:30:33;;;;;;;3.30;1.70;;;;;;;;;;6202205;23;20013;-82
2022/11/08 10:33:00;;;;;;;2.65;1.50;;;;;;;;;;6202377;23;19996;-82
2022/11/08 10:35:45;;;;;;;4.43;1.90;;;;;;;;;;6200602;23;20040;-82
2022/11/08 10:38:19;;;;;;;2.50;1.42;;;;;;;;;;6202405;23;20042;-82
2022/11/08 10:40:54;;;;;;;6.90;2.05;;;;;;;;;;6202340;23;20584;-84
2022/11/08 10:43:32;;;;;;;4.88;1.58;;;;;;;;;;6203117;23;19997;-76
2022/11/08 10:45:59;;;;;;;5.53;1.50;;;;;;;;;;6200370;23;20004;-84
2022/11/08 10:48:25;;;;;;;4.53;2.10;;;;;;;;;;6175858;23;20353;-81
2022/11/08 10:50:52;;;;;;;5.15;1.75;;;;;;;;;;6201620;23;20078;-82
2022/11/08 10:53:22;;;;;;;4.05;2.25;;;;;;;;;;6202474;23;20355;-81
2022/11/08 10:55:50;;;;;;;4.43;1.50;;;;;;;;;;6202269;23;20086;-81
2022/11/08 10:58:31;;;;;;;4.30;1.77;;;;;;;;;;6199835;23;20001;-77
2022/11/08 11:01:06;;;;;;;7.40;1.88;;;;;;;;;;6202160;23;20071;-74
2022/11/08 11:03:32;;;;;;;4.72;1.67;;;;;;;;;;6202082;23;20031;-77
2022/11/08 11:06:05;;;;;;;4.88;1.63;;;;;;;;;;6201816;23;20009;-76
2022/11/08 11:08:32;;;;;;;5.70;2.03;;;;;;;;;;6201959;23;20050;-78
2022/11/08 11:11:34;;;;;;;2.58;1.38;;;;;;;;;;6198752;23;20063;-77
2022/11/08 11:14:06;;;;;;;5.65;1.85;;;;;;;;;;6080108;23;20117;-79
2022/11/08 11:16:33;;;;;;;4.30;1.55;;;;;;;;;;6182084;23;20004;-77
2022/11/08 11:19:00;;;;;;;4.05;1.90;;;;;;;;;;6201120;23;20005;-79
2022/11/08 11:21:34;;;;;;;3.40;1.92;;;;;;;;;;6199921;23;19993;-75
2022/11/08 11:24:11;;;;;;;5.80;2.03;;;;;;;;;;6201533;23;20059;-75
2022/11/08 11:26:42;;;;;;;3.63;1.80;;;;;;;;;;6202205;23;20011;-76
2022/11/08 11:29:16;;;;;;;5.60;2.00;;;;;;;;;;6200641;23;20239;-75
2022/11/08 11:31:44;;;;;;;2.70;2.00;;;;;;;;;;6201567;23;20429;-74
2022/11/08 11:34:16;;;;;;;3.35;2.15;;;;;;;;;;6199754;23;20017;-74
2022/11/08 11:36:45;;;;;;;5.65;2.10;;;;;;;;;;6201657;23;20012;-73
2022/11/08 11:39:34;;;;;;;5.80;2.22;;;;;;;;;;6174467;23;20092;-75
2022/11/08 11:42:03;;;;;;;4.57;2.90;;;;;;;;;;6185429;23;20070;-75
2022/11/08 11:44:35;;;;;;;4.63;2.60;;;;;;;;;;6201218;23;20000;-75
2022/11/08 11:47:04;;;;;;;3.22;1.77;;;;;;;;;;6199306;23;20003;-75
2022/11/08 11:49:31;;;;;;;4.05;2.28;;;;;;;;;;6201390;23;20010;-75
2022/11/08 11:51:57;;;;;;;4.15;2.65;;;;;;;;;;6200266;23;20504;-74
2022/11/08 11:54:27;;;;;;;7.57;2.95;;;;;;;;;;6204066;23;20001;-75
2022/11/08 11:56:56;;;;;;;4.88;2.53;;;;;;;;;;6201214;23;20036;-74
2022/11/08 11:59:35;;;;;;;3.20;2.40;;;;;;;;;;6202454;23;20011;-72
2022/11/08 12:02:19;;;;;;;10.90;3.50;;;;;;;;;;6201177;23;20001;-74
2022/11/08 12:05:15;;;;;;;9.43;3.97;;;;;;;;;;6200116;23;20011;-72
2022/11/08 12:07:47;;;;;;;6.38;2.90;;;;;;;;;;6150137;23;20005;-75
2022/11/08 12:10:23;;;;;;;4.78;2.53;;;;;;;;;;6200942;23;20372;-73
2022/11/08 12:13:14;;;;;;;7.60;2.90;;;;;;;;;;6201733;23;19997;-74
2022/11/08 12:15:41;;;;;;;7.90;2.70;;;;;;;;;;6200532;23;20195;-74
2022/11/08 12:18:26;;;;;;;6.75;2.03;;;;;;;;;;6199595;23;20011;-74
2022/11/08 12:20:52;;;;;;;8.50;1.90;;;;;;;;;;6200496;23;20027;-76
2022/11/08 12:23:29;;;;;;;2.78;1.50;;;;;;;;;;6201135;23;20000;-74
2022/11/08 12:26:11;;;;;;;7.32;2.00;;;;;;;;;;6200802;23;20009;-75
2022/11/08 12:28:37;;;;;;;5.28;1.63;;;;;;;;;;6200955;23;20067;-76
2022/11/08 12:31:22;;;;;;;3.17;1.65;;;;;;;;;;6196460;23;20705;-75
2022/11/08 12:33:55;;;;;;;4.10;1.90;;;;;;;;;;6169463;23;20601;-76
2022/11/08 12:36:26;;;;;;;7.00;1.80;;;;;;;;;;6197687;23;20568;-76
2022/11/08 12:38:52;;;;;;;3.83;1.60;;;;;;;;;;6197356;23;20064;-76
2022/11/08 12:41:25;;;;;;;3.63;1.70;;;;;;;;;;6169476;23;20017;-74
2022/11/08 12:43:54;;;;;;;6.28;1.98;;;;;;;;;;6195949;23;20377;-77
2022/11/08 12:46:20;;;;;;;6.32;1.70;;;;;;;;;;6170839;23;19997;-75
2022/11/08 12:48:49;;;;;;;4.35;1.70;;;;;;;;;;6195244;23;20075;-77
2022/11/08 12:51:40;;;;;;;3.63;1.50;;;;;;;;;;6170290;23;20016;-75
2022/11/08 12:54:17;;;;;;;3.65;1.80;;;;;;;;;;6170710;23;20005;-77
2022/11/08 12:56:47;;;;;;;3.67;1.50;;;;;;;;;;6168430;23;20074;-76
2022/11/08 12:59:16;;;;;;;4.78;1.60;;;;;;;;;;6195895;23;20008;-76
2022/11/08 13:01:44;;;;;;;4.82;1.40;;;;;;;;;;6197026;23;20021;-76
2022/11/08 13:04:12;;;;;;;2.63;1.35;;;;;;;;;;6195121;23;20028;-76
2022/11/08 13:06:42;;;;;;;3.03;1.52;;;;;;;;;;6195787;23;20422;-74
2022/11/08 13:09:47;;;;;;;5.53;1.70;;;;;;;;;;6169513;23;20012;-77
2022/11/08 13:12:25;;;;;;;3.58;1.27;;;;;;;;;;6074652;23;20527;-76
2022/11/08 13:14:51;;;;;;;2.40;1.42;;;;;;;;;;6072596;23;20006;-74
2022/11/08 13:17:25;;;;;;;3.05;1.60;;;;;;;;;;6142366;23;20533;-76
2022/11/08 13:19:52;;;;;;;3.85;1.52;;;;;;;;;;6195356;23;20083;-77
2022/11/08 13:22:31;;;;;;;9.63;1.88;;;;;;;;;;6196274;23;20012;-76
2022/11/08 13:24:58;;;;;;;4.32;1.63;;;;;;;;;;6194031;23;20000;-76
2022/11/08 13:27:32;;;;;;;3.85;1.42;;;;;;;;;;6198857;23;20008;-81
2022/11/08 13:30:02;;;;;;;3.95;1.40;;;;;;;;;;6198016;23;20011;-77
2022/11/08 13:32:39;;;;;;;4.85;1.35;;;;;;;;;;6171523;23;20005;-76
2022/11/08 13:35:43;;;;;;;3.78;1.60;;;;;;;;;;6199026;23;20603;-77
2022/11/08 13:38:45;;;;;;;2.00;1.23;;;;;;;;;;6079628;23;20065;-76
2022/11/08 13:41:17;;;;;;;1.90;1.38;;;;;;;;;;6051020;23;20098;-77
2022/11/08 13:43:43;;;;;;;2.58;1.40;;;;;;;;;;6166622;23;20009;-76
2022/11/08 13:46:30;;;;;;;4.32;1.80;;;;;;;;;;6198099;23;19997;-76
2022/11/08 13:49:02;;;;;;;3.80;1.17;;;;;;;;;;6176406;23;20005;-76
2022/11/08 13:51:35;;;;;;;3.92;1.48;;;;;;;;;;6198195;23;20071;-74
2022/11/08 13:54:19;;;;;;;2.90;1.35;;;;;;;;;;6198900;23;20077;-76
2022/11/08 13:56:52;;;;;;;3.17;1.20;;;;;;;;;;6198240;23;20007;-77
2022/11/08 13:59:31;;;;;;;4.97;1.60;;;;;;;;;;6194720;23;20012;-76
2022/11/08 14:02:02;;;;;;;3.95;1.65;;;;;;;;;;6198558;23;19997;-77
2022/11/08 14:04:33;;;;;;;3.72;1.95;;;;;;;;;;6200746;23;20008;-72
2022/11/08 14:07:09;;;;;;;5.25;1.83;;;;;;;;;;6199119;23;20005;-73
2022/11/08 14:09:41;;;;;;;4.85;1.35;;;;;;;;;;6199933;23;20008;-76
2022/11/08 14:12:10;;;;;;;2.92;1.17;;;;;;;;;;6200698;23;20093;-77
2022/11/08 14:14:42;;;;;;;6.90;1.60;;;;;;;;;;6174059;23;20005;-73
2022/11/08 14:17:27;;;;;;;6.40;1.60;;;;;;;;;;6200290;23;20430;-73
2022/11/08 14:19:54;;;;;;;2.53;1.30;;;;;;;;;;6199037;23;20004;-76
2022/11/08 14:22:28;;;;;;;3.17;1.38;;;;;;;;;;6199568;23;20003;-76
2022/11/08 14:24:58;;;;;;;3.75;1.50;;;;;;;;;;6197621;23;20001;-72
2022/11/08 14:27:38;;;;;;;5.78;1.85;;;;;;;;;;6197591;23;20108;-76
2022/11/08 14:30:23;;;;;;;6.22;1.40;;;;;;;;;;6195134;23;20078;-77
2022/11/08 14:33:04;;;;;;;5.38;1.40;;;;;;;;;;6195604;23;20016;-77
2022/11/08 14:35:30;;;;;;;3.72;1.40;;;;;;;;;;6195915;23;20012;-76
2022/11/08 14:37:56;;;;;;;2.60;1.50;;;;;;;;;;6197717;23;20036;-76
2022/11/08 14:40:24;;;;;;;5.97;1.70;;;;;;;;;;6194656;23;20008;-76
2022/11/08 14:42:51;;;;;;;5.20;1.90;;;;;;;;;;6197857;23;20005;-75
2022/11/08 14:45:18;;;;;;;6.53;1.90;;;;;;;;;;6196718;23;20828;-76
2022/11/08 14:47:44;;;;;;;2.65;1.50;;;;;;;;;;6195838;23;20200;-76
2022/11/08 14:50:16;;;;;;;3.97;1.83;;;;;;;;;;6197712;23;20145;-76
2022/11/08 14:52:42;;;;;;;3.42;1.50;;;;;;;;;;6197672;23;20016;-76
2022/11/08 14:55:10;;;;;;;3.28;1.75;;;;;;;;;;6197478;23;20481;-77
2022/11/08 14:57:36;;;;;;;2.75;1.70;;;;;;;;;;6196380;23;20001;-76
2022/11/08 15:00:05;;;;;;;5.93;2.13;;;;;;;;;;6195072;23;20004;-76
2022/11/08 15:02:32;;;;;;;7.85;1.98;;;;;;;;;;6197222;23;20111;-75
2022/11/08 15:04:58;;;;;;;2.95;1.50;;;;;;;;;;6197221;23;20019;-75
2022/11/08 15:07:25;;;;;;;2.47;1.42;;;;;;;;;;6197355;23;20699;-76
2022/11/08 15:09:52;;;;;;;8.43;2.20;;;;;;;;;;6195242;23;20005;-76
2022/11/08 15:12:20;;;;;;;4.93;2.10;;;;;;;;;;6197176;23;20313;-79
2022/11/08 15:14:48;;;;;;;4.90;1.80;;;;;;;;;;6197074;23;20004;-78